Terminal Aerodrome Forecast
Issued by NWS North Platte, NE

Home | Current Version | Previous Version | Text Only | Print | Product List | Glossary On
Versions: 1 2 3 4 5 6 7 8 9 10 11 12 13 14 15 16 17 18 19 20
603
FTUS43 KLBF 300520
TAFVTN
TAF
KVTN 300520Z 3006/3106 12006KT P6SM BKN090 OVC150
     FM301000 18010KT P6SM BKN020
     FM301600 18012KT P6SM SCT020 BKN200
     FM301800 16015KT P6SM BKN040
     FM310300 14009KT P6SM VCTS BKN060CB OVC150=

USA.gov is the U.S. government's official web portal to all federal, state and local government web resources and services.